sensor_id;sensor_type;location;lat;lon;timestamp;P1;durP1;ratioP1;P2;durP2;ratioP2
64623;SDS011;51031;50.912;9.242;2022-07-01T00:00:06;8.82;;;6.03;;
64623;SDS011;51031;50.912;9.242;2022-07-01T00:00:28;8.52;;;6.00;;
64623;SDS011;51031;50.912;9.242;2022-07-01T00:00:44;8.45;;;5.85;;
64623;SDS011;51031;50.912;9.242;2022-07-01T00:01:01;8.48;;;6.30;;
64623;SDS011;51031;50.912;9.242;2022-07-01T00:01:17;8.93;;;6.30;;
64623;SDS011;51031;50.912;9.242;2022-07-01T00:01:32;8.33;;;6.20;;
64623;SDS011;51031;50.912;9.242;2022-07-01T00:01:48;7.68;;;6.07;;
64623;SDS011;51031;50.912;9.242;2022-07-01T00:02:04;7.63;;;5.95;;
64623;SDS011;51031;50.912;9.242;2022-07-01T00:02:20;7.68;;;6.05;;
64623;SDS011;51031;50.912;9.242;2022-07-01T00:02:36;7.70;;;6.15;;
64623;SDS011;51031;50.912;9.242;2022-07-01T00:02:53;8.27;;;6.00;;
64623;SDS011;51031;50.912;9.242;2022-07-01T00:03:09;8.60;;;5.90;;
64623;SDS011;51031;50.912;9.242;2022-07-01T00:03:25;8.67;;;6.23;;
64623;SDS011;51031;50.912;9.242;2022-07-01T00:03:42;8.68;;;6.15;;
64623;SDS011;51031;50.912;9.242;2022-07-01T00:04:04;8.02;;;5.80;;
64623;SDS011;51031;50.912;9.242;2022-07-01T00:04:21;8.57;;;5.70;;
64623;SDS011;51031;50.912;9.242;2022-07-01T00:04:36;9.25;;;6.10;;
64623;SDS011;51031;50.912;9.242;2022-07-01T00:05:11;7.55;;;6.30;;
64623;SDS011;51031;50.912;9.242;2022-07-01T00:05:35;7.53;;;5.90;;
64623;SDS011;51031;50.912;9.242;2022-07-01T00:05:50;7.22;;;5.70;;
64623;SDS011;51031;50.912;9.242;2022-07-01T00:06:06;7.07;;;5.60;;
64623;SDS011;51031;50.912;9.242;2022-07-01T00:06:22;7.55;;;5.65;;
64623;SDS011;51031;50.912;9.242;2022-07-01T00:06:38;7.72;;;5.80;;
64623;SDS011;51031;50.912;9.242;2022-07-01T00:06:55;7.50;;;5.85;;
64623;SDS011;51031;50.912;9.242;2022-07-01T00:07:11;7.97;;;5.97;;
64623;SDS011;51031;50.912;9.242;2022-07-01T00:07:27;9.23;;;6.03;;
64623;SDS011;51031;50.912;9.242;2022-07-01T00:07:43;8.60;;;5.90;;
64623;SDS011;51031;50.912;9.242;2022-07-01T00:07:58;7.43;;;5.87;;
64623;SDS011;51031;50.912;9.242;2022-07-01T00:08:15;7.63;;;5.75;;
64623;SDS011;51031;50.912;9.242;2022-07-01T00:08:32;7.85;;;5.90;;
64623;SDS011;51031;50.912;9.242;2022-07-01T00:08:48;9.48;;;6.00;;
64623;SDS011;51031;50.912;9.242;2022-07-01T00:09:04;9.03;;;5.80;;
64623;SDS011;51031;50.912;9.242;2022-07-01T00:09:20;8.60;;;6.07;;
64623;SDS011;51031;50.912;9.242;2022-07-01T00:09:36;9.15;;;6.07;;
64623;SDS011;51031;50.912;9.242;2022-07-01T00:09:53;8.50;;;5.80;;
64623;SDS011;51031;50.912;9.242;2022-07-01T00:10:09;8.32;;;5.57;;
64623;SDS011;51031;50.912;9.242;2022-07-01T00:10:25;7.63;;;5.63;;
64623;SDS011;51031;50.912;9.242;2022-07-01T00:10:41;7.07;;;5.80;;
64623;SDS011;51031;50.912;9.242;2022-07-01T00:10:57;7.18;;;5.50;;
64623;SDS011;51031;50.912;9.242;2022-07-01T00:11:14;7.93;;;5.50;;
64623;SDS011;51031;50.912;9.242;2022-07-01T00:11:30;8.45;;;5.78;;
64623;SDS011;51031;50.912;9.242;2022-07-01T00:11:46;8.07;;;5.80;;
64623;SDS011;51031;50.912;9.242;2022-07-01T00:12:02;8.13;;;5.78;;
64623;SDS011;51031;50.912;9.242;2022-07-01T00:12:18;9.03;;;5.93;;
64623;SDS011;51031;50.912;9.242;2022-07-01T00:12:34;8.35;;;5.75;;
64623;SDS011;51031;50.912;9.242;2022-07-01T00:12:51;8.70;;;5.82;;
64623;SDS011;51031;50.912;9.242;2022-07-01T00:13:07;9.48;;;5.80;;
64623;SDS011;51031;50.912;9.242;2022-07-01T00:13:23;7.70;;;5.40;;
64623;SDS011;51031;50.912;9.242;2022-07-01T00:13:39;8.40;;;5.50;;
64623;SDS011;51031;50.912;9.242;2022-07-01T00:13:54;8.50;;;5.60;;
64623;SDS011;51031;50.912;9.242;2022-07-01T00:14:10;7.60;;;5.50;;
64623;SDS011;51031;50.912;9.242;2022-07-01T00:14:27;7.75;;;5.78;;
64623;SDS011;51031;50.912;9.242;2022-07-01T00:14:43;7.28;;;5.63;;
64623;SDS011;51031;50.912;9.242;2022-07-01T00:14:59;7.23;;;5.30;;
64623;SDS011;51031;50.912;9.242;2022-07-01T00:15:15;7.78;;;5.30;;
64623;SDS011;51031;50.912;9.242;2022-07-01T00:15:30;7.38;;;5.38;;
64623;SDS011;51031;50.912;9.242;2022-07-01T00:15:47;7.82;;;5.50;;
64623;SDS011;51031;50.912;9.242;2022-07-01T00:16:03;7.80;;;5.50;;
64623;SDS011;51031;50.912;9.242;2022-07-01T00:16:19;6.93;;;5.35;;
64623;SDS011;51031;50.912;9.242;2022-07-01T00:16:35;6.85;;;5.43;;
64623;SDS011;51031;50.912;9.242;2022-07-01T00:16:51;7.70;;;5.50;;
64623;SDS011;51031;50.912;9.242;2022-07-01T00:17:08;7.90;;;5.45;;
64623;SDS011;51031;50.912;9.242;2022-07-01T00:17:24;7.95;;;5.35;;
64623;SDS011;51031;50.912;9.242;2022-07-01T00:17:39;7.30;;;5.28;;
64623;SDS011;51031;50.912;9.242;2022-07-01T00:17:55;8.32;;;5.57;;
64623;SDS011;51031;50.912;9.242;2022-07-01T00:18:12;9.75;;;6.10;;
64623;SDS011;51031;50.912;9.242;2022-07-01T00:18:28;9.95;;;6.65;;
64623;SDS011;51031;50.912;9.242;2022-07-01T00:18:46;9.18;;;6.32;;
64623;SDS011;51031;50.912;9.242;2022-07-01T00:19:02;8.23;;;5.47;;
64623;SDS011;51031;50.912;9.242;2022-07-01T00:19:18;8.20;;;5.75;;
64623;SDS011;51031;50.912;9.242;2022-07-01T00:19:34;8.07;;;6.03;;
64623;SDS011;51031;50.912;9.242;2022-07-01T00:19:50;7.65;;;5.78;;
64623;SDS011;51031;50.912;9.242;2022-07-01T00:20:06;7.63;;;5.77;;
64623;SDS011;51031;50.912;9.242;2022-07-01T00:20:24;7.60;;;5.57;;
64623;SDS011;51031;50.912;9.242;2022-07-01T00:20:40;7.43;;;5.40;;
64623;SDS011;51031;50.912;9.242;2022-07-01T00:20:56;6.70;;;5.20;;
64623;SDS011;51031;50.912;9.242;2022-07-01T00:21:12;6.63;;;5.18;;
64623;SDS011;51031;50.912;9.242;2022-07-01T00:21:28;8.73;;;5.40;;
64623;SDS011;51031;50.912;9.242;2022-07-01T00:21:44;9.48;;;5.45;;
64623;SDS011;51031;50.912;9.242;2022-07-01T00:22:00;8.30;;;5.55;;
64623;SDS011;51031;50.912;9.242;2022-07-01T00:22:16;8.65;;;5.75;;
64623;SDS011;51031;50.912;9.242;2022-07-01T00:22:32;8.83;;;5.40;;
64623;SDS011;51031;50.912;9.242;2022-07-01T00:22:48;8.43;;;5.40;;
64623;SDS011;51031;50.912;9.242;2022-07-01T00:23:04;7.87;;;5.60;;
64623;SDS011;51031;50.912;9.242;2022-07-01T00:23:20;8.23;;;5.63;;
64623;SDS011;51031;50.912;9.242;2022-07-01T00:23:37;9.75;;;5.93;;
64623;SDS011;51031;50.912;9.242;2022-07-01T00:23:53;9.35;;;6.00;;
64623;SDS011;51031;50.912;9.242;2022-07-01T00:24:09;7.50;;;5.53;;
64623;SDS011;51031;50.912;9.242;2022-07-01T00:24:24;7.13;;;5.10;;
64623;SDS011;51031;50.912;9.242;2022-07-01T00:24:40;7.40;;;5.00;;
64623;SDS011;51031;50.912;9.242;2022-07-01T00:24:57;7.78;;;5.47;;
64623;SDS011;51031;50.912;9.242;2022-07-01T00:25:13;7.70;;;5.63;;
64623;SDS011;51031;50.912;9.242;2022-07-01T00:25:29;7.35;;;5.53;;
64623;SDS011;51031;50.912;9.242;2022-07-01T00:25:45;7.85;;;5.60;;
64623;SDS011;51031;50.912;9.242;2022-07-01T00:26:02;7.50;;;5.20;;
64623;SDS011;51031;50.912;9.242;2022-07-01T00:26:18;7.95;;;5.30;;
64623;SDS011;51031;50.912;9.242;2022-07-01T00:26:33;8.75;;;5.57;;
64623;SDS011;51031;50.912;9.242;2022-07-01T00:26:49;8.05;;;5.28;;
64623;SDS011;51031;50.912;9.242;2022-07-01T00:27:06;6.82;;;5.10;;
64623;SDS011;51031;50.912;9.242;2022-07-01T00:27:23;6.57;;;5.00;;
64623;SDS011;51031;50.912;9.242;2022-07-01T00:27:39;7.20;;;4.80;;
64623;SDS011;51031;50.912;9.242;2022-07-01T00:27:55;7.57;;;5.05;;
64623;SDS011;51031;50.912;9.242;2022-07-01T00:28:11;7.43;;;5.38;;
64623;SDS011;51031;50.912;9.242;2022-07-01T00:28:27;7.38;;;5.30;;
64623;SDS011;51031;50.912;9.242;2022-07-01T00:28:44;6.38;;;4.82;;
64623;SDS011;51031;50.912;9.242;2022-07-01T00:29:00;7.00;;;4.40;;
64623;SDS011;51031;50.912;9.242;2022-07-01T00:29:15;7.70;;;4.83;;
64623;SDS011;51031;50.912;9.242;2022-07-01T00:29:31;7.85;;;5.60;;
64623;SDS011;51031;50.912;9.242;2022-07-01T00:29:48;8.00;;;5.45;;
64623;SDS011;51031;50.912;9.242;2022-07-01T00:30:05;7.20;;;4.95;;
64623;SDS011;51031;50.912;9.242;2022-07-01T00:30:22;6.88;;;4.70;;
64623;SDS011;51031;50.912;9.242;2022-07-01T00:30:38;6.63;;;4.47;;
64623;SDS011;51031;50.912;9.242;2022-07-01T00:30:54;7.20;;;4.50;;
64623;SDS011;51031;50.912;9.242;2022-07-01T00:31:10;7.43;;;4.50;;
64623;SDS011;51031;50.912;9.242;2022-07-01T00:31:27;6.50;;;4.30;;
64623;SDS011;51031;50.912;9.242;2022-07-01T00:31:43;6.50;;;4.35;;
64623;SDS011;51031;50.912;9.242;2022-07-01T00:31:58;6.40;;;4.53;;
64623;SDS011;51031;50.912;9.242;2022-07-01T00:32:14;6.38;;;4.38;;
64623;SDS011;51031;50.912;9.242;2022-07-01T00:32:30;6.93;;;4.50;;
64623;SDS011;51031;50.912;9.242;2022-07-01T00:32:47;7.28;;;4.63;;
64623;SDS011;51031;50.912;9.242;2022-07-01T00:33:03;7.00;;;4.70;;
64623;SDS011;51031;50.912;9.242;2022-07-01T00:33:19;6.45;;;4.50;;
64623;SDS011;51031;50.912;9.242;2022-07-01T00:33:35;6.85;;;4.53;;
64623;SDS011;51031;50.912;9.242;2022-07-01T00:33:52;7.00;;;4.43;;
64623;SDS011;51031;50.912;9.242;2022-07-01T00:34:08;6.88;;;4.55;;
64623;SDS011;51031;50.912;9.242;2022-07-01T00:34:24;8.52;;;4.65;;
64623;SDS011;51031;50.912;9.242;2022-07-01T00:34:40;7.68;;;4.40;;
64623;SDS011;51031;50.912;9.242;2022-07-01T00:34:58;7.38;;;4.55;;
64623;SDS011;51031;50.912;9.242;2022-07-01T00:35:14;7.63;;;4.72;;
64623;SDS011;51031;50.912;9.242;2022-07-01T00:35:30;7.35;;;4.72;;
64623;SDS011;51031;50.912;9.242;2022-07-01T00:35:47;6.53;;;4.38;;
64623;SDS011;51031;50.912;9.242;2022-07-01T00:36:03;6.67;;;4.67;;
64623;SDS011;51031;50.912;9.242;2022-07-01T00:36:19;7.47;;;4.90;;
64623;SDS011;51031;50.912;9.242;2022-07-01T00:36:34;6.63;;;4.25;;
64623;SDS011;51031;50.912;9.242;2022-07-01T00:36:50;6.18;;;3.97;;
64623;SDS011;51031;50.912;9.242;2022-07-01T00:37:06;6.03;;;4.00;;
64623;SDS011;51031;50.912;9.242;2022-07-01T00:37:25;6.25;;;4.35;;
64623;SDS011;51031;50.912;9.242;2022-07-01T00:37:41;6.80;;;4.57;;
64623;SDS011;51031;50.912;9.242;2022-07-01T00:37:57;7.72;;;4.97;;
64623;SDS011;51031;50.912;9.242;2022-07-01T00:38:13;7.88;;;5.05;;
64623;SDS011;51031;50.912;9.242;2022-07-01T00:38:28;6.70;;;4.60;;
64623;SDS011;51031;50.912;9.242;2022-07-01T00:38:44;6.65;;;4.50;;
64623;SDS011;51031;50.912;9.242;2022-07-01T00:39:00;7.63;;;4.40;;
64623;SDS011;51031;50.912;9.242;2022-07-01T00:39:17;7.38;;;4.38;;
64623;SDS011;51031;50.912;9.242;2022-07-01T00:39:33;6.47;;;4.25;;
64623;SDS011;51031;50.912;9.242;2022-07-01T00:39:50;6.57;;;4.25;;
64623;SDS011;51031;50.912;9.242;2022-07-01T00:40:07;6.70;;;4.40;;
64623;SDS011;51031;50.912;9.242;2022-07-01T00:40:23;6.85;;;4.47;;
64623;SDS011;51031;50.912;9.242;2022-07-01T00:40:39;6.78;;;4.65;;
64623;SDS011;51031;50.912;9.242;2022-07-01T00:40:56;7.00;;;4.60;;
64623;SDS011;51031;50.912;9.242;2022-07-01T00:41:12;6.90;;;4.40;;
64623;SDS011;51031;50.912;9.242;2022-07-01T00:41:28;6.40;;;4.50;;
64623;SDS011;51031;50.912;9.242;2022-07-01T00:41:46;6.78;;;4.60;;
64623;SDS011;51031;50.912;9.242;2022-07-01T00:42:03;7.22;;;4.50;;
64623;SDS011;51031;50.912;9.242;2022-07-01T00:42:20;7.72;;;5.10;;
64623;SDS011;51031;50.912;9.242;2022-07-01T00:42:39;7.25;;;4.72;;
64623;SDS011;51031;50.912;9.242;2022-07-01T00:42:56;6.57;;;4.25;;
64623;SDS011;51031;50.912;9.242;2022-07-01T00:43:11;7.22;;;4.70;;
64623;SDS011;51031;50.912;9.242;2022-07-01T00:43:27;6.90;;;4.55;;
64623;SDS011;51031;50.912;9.242;2022-07-01T00:43:50;6.45;;;4.60;;
64623;SDS011;51031;50.912;9.242;2022-07-01T00:44:06;6.38;;;4.20;;
64623;SDS011;51031;50.912;9.242;2022-07-01T00:44:31;7.55;;;4.68;;
64623;SDS011;51031;50.912;9.242;2022-07-01T00:44:47;6.78;;;4.63;;
64623;SDS011;51031;50.912;9.242;2022-07-01T00:45:03;7.57;;;4.45;;
64623;SDS011;51031;50.912;9.242;2022-07-01T00:45:20;7.07;;;4.68;;
64623;SDS011;51031;50.912;9.242;2022-07-01T00:45:36;6.82;;;4.60;;
64623;SDS011;51031;50.912;9.242;2022-07-01T00:45:58;7.32;;;4.47;;
64623;SDS011;51031;50.912;9.242;2022-07-01T00:46:13;6.73;;;4.23;;
64623;SDS011;51031;50.912;9.242;2022-07-01T00:46:29;6.80;;;4.32;;
64623;SDS011;51031;50.912;9.242;2022-07-01T00:46:46;6.93;;;4.10;;
64623;SDS011;51031;50.912;9.242;2022-07-01T00:47:07;7.55;;;4.35;;
64623;SDS011;51031;50.912;9.242;2022-07-01T00:47:27;7.70;;;4.78;;
64623;SDS011;51031;50.912;9.242;2022-07-01T00:47:43;7.28;;;4.57;;
64623;SDS011;51031;50.912;9.242;2022-07-01T00:48:00;6.38;;;4.18;;
64623;SDS011;51031;50.912;9.242;2022-07-01T00:48:17;7.15;;;4.78;;
64623;SDS011;51031;50.912;9.242;2022-07-01T00:48:34;7.47;;;4.93;;
64623;SDS011;51031;50.912;9.242;2022-07-01T00:48:54;7.55;;;4.82;;
64623;SDS011;51031;50.912;9.242;2022-07-01T00:49:11;7.53;;;5.07;;
64623;SDS011;51031;50.912;9.242;2022-07-01T00:49:28;7.57;;;4.93;;
64623;SDS011;51031;50.912;9.242;2022-07-01T00:49:44;7.82;;;5.07;;
64623;SDS011;51031;50.912;9.242;2022-07-01T00:50:00;8.27;;;5.18;;
64623;SDS011;51031;50.912;9.242;2022-07-01T00:50:16;8.32;;;5.10;;
64623;SDS011;51031;50.912;9.242;2022-07-01T00:50:32;8.00;;;5.20;;
64623;SDS011;51031;50.912;9.242;2022-07-01T00:50:47;7.70;;;5.03;;
64623;SDS011;51031;50.912;9.242;2022-07-01T00:51:04;6.75;;;4.35;;
64623;SDS011;51031;50.912;9.242;2022-07-01T00:51:20;8.07;;;5.18;;
64623;SDS011;51031;50.912;9.242;2022-07-01T00:51:37;8.45;;;5.32;;
64623;SDS011;51031;50.912;9.242;2022-07-01T00:51:55;6.82;;;4.07;;
64623;SDS011;51031;50.912;9.242;2022-07-01T00:52:13;7.13;;;4.38;;
64623;SDS011;51031;50.912;9.242;2022-07-01T00:52:29;7.78;;;4.88;;
64623;SDS011;51031;50.912;9.242;2022-07-01T00:52:45;6.68;;;4.10;;
64623;SDS011;51031;50.912;9.242;2022-07-01T00:53:01;5.68;;;3.47;;
64623;SDS011;51031;50.912;9.242;2022-07-01T00:53:17;6.13;;;3.72;;
64623;SDS011;51031;50.912;9.242;2022-07-01T00:53:33;6.00;;;3.70;;
64623;SDS011;51031;50.912;9.242;2022-07-01T00:53:49;8.02;;;4.32;;
64623;SDS011;51031;50.912;9.242;2022-07-01T00:54:05;9.15;;;5.00;;
64623;SDS011;51031;50.912;9.242;2022-07-01T00:54:23;7.85;;;4.88;;
64623;SDS011;51031;50.912;9.242;2022-07-01T00:54:39;6.72;;;4.38;;
64623;SDS011;51031;50.912;9.242;2022-07-01T00:54:55;7.45;;;4.53;;
64623;SDS011;51031;50.912;9.242;2022-07-01T00:55:14;7.97;;;5.22;;
64623;SDS011;51031;50.912;9.242;2022-07-01T00:55:30;8.18;;;5.38;;
64623;SDS011;51031;50.912;9.242;2022-07-01T00:55:47;8.93;;;5.70;;
64623;SDS011;51031;50.912;9.242;2022-07-01T00:56:03;8.05;;;5.15;;
64623;SDS011;51031;50.912;9.242;2022-07-01T00:56:19;6.75;;;4.32;;
64623;SDS011;51031;50.912;9.242;2022-07-01T00:56:36;7.72;;;4.38;;
64623;SDS011;51031;50.912;9.242;2022-07-01T00:56:52;9.05;;;4.60;;
64623;SDS011;51031;50.912;9.242;2022-07-01T00:57:09;8.25;;;4.15;;
64623;SDS011;51031;50.912;9.242;2022-07-01T00:57:29;6.95;;;4.22;;
64623;SDS011;51031;50.912;9.242;2022-07-01T00:57:45;8.75;;;5.43;;
64623;SDS011;51031;50.912;9.242;2022-07-01T00:58:01;9.10;;;5.70;;
64623;SDS011;51031;50.912;9.242;2022-07-01T00:58:17;7.45;;;4.78;;
64623;SDS011;51031;50.912;9.242;2022-07-01T00:58:33;6.43;;;4.00;;
64623;SDS011;51031;50.912;9.242;2022-07-01T00:58:50;7.35;;;4.07;;
64623;SDS011;51031;50.912;9.242;2022-07-01T00:59:06;6.95;;;3.83;;
64623;SDS011;51031;50.912;9.242;2022-07-01T00:59:22;6.40;;;3.92;;
64623;SDS011;51031;50.912;9.242;2022-07-01T00:59:38;6.47;;;3.65;;
64623;SDS011;51031;50.912;9.242;2022-07-01T00:59:54;6.70;;;3.28;;
64623;SDS011;51031;50.912;9.242;2022-07-01T01:00:11;7.25;;;4.00;;
64623;SDS011;51031;50.912;9.242;2022-07-01T01:00:30;7.65;;;4.53;;
64623;SDS011;51031;50.912;9.242;2022-07-01T01:00:46;7.72;;;4.55;;
64623;SDS011;51031;50.912;9.242;2022-07-01T01:01:02;8.10;;;4.88;;
64623;SDS011;51031;50.912;9.242;2022-07-01T01:01:18;6.63;;;4.20;;
64623;SDS011;51031;50.912;9.242;2022-07-01T01:01:34;6.57;;;3.60;;
64623;SDS011;51031;50.912;9.242;2022-07-01T01:01:51;7.20;;;3.67;;
64623;SDS011;51031;50.912;9.242;2022-07-01T01:02:07;7.90;;;4.20;;
64623;SDS011;51031;50.912;9.242;2022-07-01T01:02:24;8.30;;;4.93;;
64623;SDS011;51031;50.912;9.242;2022-07-01T01:02:40;7.50;;;4.63;;
64623;SDS011;51031;50.912;9.242;2022-07-01T01:02:55;8.05;;;4.35;;
64623;SDS011;51031;50.912;9.242;2022-07-01T01:03:12;7.55;;;4.10;;
64623;SDS011;51031;50.912;9.242;2022-07-01T01:03:28;7.38;;;4.68;;
64623;SDS011;51031;50.912;9.242;2022-07-01T01:03:45;7.78;;;5.05;;
64623;SDS011;51031;50.912;9.242;2022-07-01T01:04:02;8.02;;;5.20;;
64623;SDS011;51031;50.912;9.242;2022-07-01T01:04:18;9.02;;;5.22;;
64623;SDS011;51031;50.912;9.242;2022-07-01T01:04:35;8.65;;;4.80;;
64623;SDS011;51031;50.912;9.242;2022-07-01T01:04:51;6.50;;;3.83;;
64623;SDS011;51031;50.912;9.242;2022-07-01T01:05:07;7.45;;;3.65;;
64623;SDS011;51031;50.912;9.242;2022-07-01T01:05:24;7.60;;;3.72;;
64623;SDS011;51031;50.912;9.242;2022-07-01T01:05:40;5.85;;;3.50;;
64623;SDS011;51031;50.912;9.242;2022-07-01T01:05:57;5.20;;;3.15;;
64623;SDS011;51031;50.912;9.242;2022-07-01T01:06:13;5.97;;;3.43;;
64623;SDS011;51031;50.912;9.242;2022-07-01T01:06:29;6.85;;;4.05;;
64623;SDS011;51031;50.912;9.242;2022-07-01T01:06:45;6.40;;;3.50;;
64623;SDS011;51031;50.912;9.242;2022-07-01T01:07:01;6.03;;;3.28;;
64623;SDS011;51031;50.912;9.242;2022-07-01T01:07:18;6.38;;;3.97;;
64623;SDS011;51031;50.912;9.242;2022-07-01T01:07:34;6.72;;;4.03;;
64623;SDS011;51031;50.912;9.242;2022-07-01T01:07:51;6.65;;;3.85;;
64623;SDS011;51031;50.912;9.242;2022-07-01T01:08:08;5.40;;;3.30;;
64623;SDS011;51031;50.912;9.242;2022-07-01T01:08:24;4.88;;;3.00;;
64623;SDS011;51031;50.912;9.242;2022-07-01T01:08:41;5.40;;;3.08;;
64623;SDS011;51031;50.912;9.242;2022-07-01T01:08:57;5.75;;;3.58;;
64623;SDS011;51031;50.912;9.242;2022-07-01T01:09:16;5.38;;;3.45;;
64623;SDS011;51031;50.912;9.242;2022-07-01T01:09:32;6.23;;;3.57;;
64623;SDS011;51031;50.912;9.242;2022-07-01T01:09:48;6.43;;;3.63;;
64623;SDS011;51031;50.912;9.242;2022-07-01T01:10:05;6.38;;;3.97;;
64623;SDS011;51031;50.912;9.242;2022-07-01T01:10:22;6.20;;;3.58;;
64623;SDS011;51031;50.912;9.242;2022-07-01T01:10:40;5.07;;;2.95;;
64623;SDS011;51031;50.912;9.242;2022-07-01T01:10:56;4.70;;;2.92;;
64623;SDS011;51031;50.912;9.242;2022-07-01T01:11:11;5.35;;;2.85;;
64623;SDS011;51031;50.912;9.242;2022-07-01T01:11:29;4.88;;;2.80;;
64623;SDS011;51031;50.912;9.242;2022-07-01T01:11:45;4.27;;;2.70;;
64623;SDS011;51031;50.912;9.242;2022-07-01T01:12:01;5.43;;;2.90;;
64623;SDS011;51031;50.912;9.242;2022-07-01T01:12:17;5.63;;;2.83;;
64623;SDS011;51031;50.912;9.242;2022-07-01T01:12:33;5.43;;;3.13;;
64623;SDS011;51031;50.912;9.242;2022-07-01T01:12:49;5.63;;;3.35;;
64623;SDS011;51031;50.912;9.242;2022-07-01T01:13:06;6.30;;;3.65;;
64623;SDS011;51031;50.912;9.242;2022-07-01T01:13:23;7.32;;;4.38;;
64623;SDS011;51031;50.912;9.242;2022-07-01T01:13:39;7.87;;;4.50;;
64623;SDS011;51031;50.912;9.242;2022-07-01T01:13:54;7.50;;;4.20;;
64623;SDS011;51031;50.912;9.242;2022-07-01T01:14:10;6.78;;;4.20;;
64623;SDS011;51031;50.912;9.242;2022-07-01T01:14:28;6.95;;;4.18;;
64623;SDS011;51031;50.912;9.242;2022-07-01T01:14:44;6.72;;;3.88;;
64623;SDS011;51031;50.912;9.242;2022-07-01T01:15:00;6.20;;;3.65;;
64623;SDS011;51031;50.912;9.242;2022-07-01T01:15:19;5.80;;;3.28;;
64623;SDS011;51031;50.912;9.242;2022-07-01T01:15:35;5.97;;;3.40;;
64623;SDS011;51031;50.912;9.242;2022-07-01T01:15:53;6.70;;;3.63;;
64623;SDS011;51031;50.912;9.242;2022-07-01T01:16:15;6.72;;;3.45;;
64623;SDS011;51031;50.912;9.242;2022-07-01T01:16:33;5.15;;;2.83;;
64623;SDS011;51031;50.912;9.242;2022-07-01T01:16:51;4.60;;;2.83;;
64623;SDS011;51031;50.912;9.242;2022-07-01T01:17:07;6.00;;;3.28;;
64623;SDS011;51031;50.912;9.242;2022-07-01T01:17:23;5.18;;;2.58;;
64623;SDS011;51031;50.912;9.242;2022-07-01T01:17:39;4.50;;;2.55;;
64623;SDS011;51031;50.912;9.242;2022-07-01T01:17:55;6.75;;;3.00;;
64623;SDS011;51031;50.912;9.242;2022-07-01T01:18:12;5.50;;;2.53;;
64623;SDS011;51031;50.912;9.242;2022-07-01T01:18:27;5.40;;;2.40;;
64623;SDS011;51031;50.912;9.242;2022-07-01T01:18:43;5.82;;;2.50;;
64623;SDS011;51031;50.912;9.242;2022-07-01T01:18:59;4.75;;;2.30;;
64623;SDS011;51031;50.912;9.242;2022-07-01T01:19:16;4.18;;;2.28;;
64623;SDS011;51031;50.912;9.242;2022-07-01T01:19:32;4.68;;;2.78;;
64623;SDS011;51031;50.912;9.242;2022-07-01T01:19:49;5.85;;;3.10;;
64623;SDS011;51031;50.912;9.242;2022-07-01T01:20:05;5.95;;;3.28;;
64623;SDS011;51031;50.912;9.242;2022-07-01T01:20:23;5.85;;;3.50;;
64623;SDS011;51031;50.912;9.242;2022-07-01T01:20:40;6.22;;;3.45;;
64623;SDS011;51031;50.912;9.242;2022-07-01T01:20:56;5.97;;;3.35;;
64623;SDS011;51031;50.912;9.242;2022-07-01T01:21:13;5.22;;;3.10;;
64623;SDS011;51031;50.912;9.242;2022-07-01T01:21:28;4.20;;;2.60;;
64623;SDS011;51031;50.912;9.242;2022-07-01T01:21:44;5.25;;;2.67;;
64623;SDS011;51031;50.912;9.242;2022-07-01T01:22:03;6.45;;;3.38;;
64623;SDS011;51031;50.912;9.242;2022-07-01T01:22:20;4.82;;;2.60;;
64623;SDS011;51031;50.912;9.242;2022-07-01T01:22:36;4.80;;;2.30;;
64623;SDS011;51031;50.912;9.242;2022-07-01T01:22:54;4.90;;;2.50;;
64623;SDS011;51031;50.912;9.242;2022-07-01T01:23:10;5.68;;;2.35;;
64623;SDS011;51031;50.912;9.242;2022-07-01T01:23:26;4.85;;;2.47;;
64623;SDS011;51031;50.912;9.242;2022-07-01T01:23:42;6.10;;;3.50;;
64623;SDS011;51031;50.912;9.242;2022-07-01T01:23:58;5.05;;;2.97;;
64623;SDS011;51031;50.912;9.242;2022-07-01T01:24:14;3.58;;;1.98;;
64623;SDS011;51031;50.912;9.242;2022-07-01T01:24:30;4.40;;;2.20;;
64623;SDS011;51031;50.912;9.242;2022-07-01T01:24:46;4.95;;;2.40;;
64623;SDS011;51031;50.912;9.242;2022-07-01T01:25:03;5.00;;;2.20;;
64623;SDS011;51031;50.912;9.242;2022-07-01T01:25:20;5.57;;;2.35;;
64623;SDS011;51031;50.912;9.242;2022-07-01T01:25:36;5.07;;;2.40;;
64623;SDS011;51031;50.912;9.242;2022-07-01T01:25:51;4.43;;;2.42;;
64623;SDS011;51031;50.912;9.242;2022-07-01T01:26:14;4.35;;;2.25;;
64623;SDS011;51031;50.912;9.242;2022-07-01T01:26:35;5.32;;;2.58;;
64623;SDS011;51031;50.912;9.242;2022-07-01T01:26:50;5.65;;;2.83;;
64623;SDS011;51031;50.912;9.242;2022-07-01T01:27:06;4.57;;;2.55;;
64623;SDS011;51031;50.912;9.242;2022-07-01T01:27:23;3.85;;;2.22;;
64623;SDS011;51031;50.912;9.242;2022-07-01T01:27:41;5.43;;;2.92;;
64623;SDS011;51031;50.912;9.242;2022-07-01T01:27:58;6.45;;;3.22;;
64623;SDS011;51031;50.912;9.242;2022-07-01T01:28:14;6.15;;;3.05;;
64623;SDS011;51031;50.912;9.242;2022-07-01T01:28:30;5.60;;;2.92;;
64623;SDS011;51031;50.912;9.242;2022-07-01T01:28:46;4.45;;;2.45;;
64623;SDS011;51031;50.912;9.242;2022-07-01T01:29:05;4.35;;;2.00;;
64623;SDS011;51031;50.912;9.242;2022-07-01T01:29:23;4.80;;;2.28;;
64623;SDS011;51031;50.912;9.242;2022-07-01T01:29:39;6.00;;;3.35;;
64623;SDS011;51031;50.912;9.242;2022-07-01T01:29:55;6.55;;;3.58;;
64623;SDS011;51031;50.912;9.242;2022-07-01T01:30:11;5.45;;;2.78;;
64623;SDS011;51031;50.912;9.242;2022-07-01T01:30:28;4.97;;;2.40;;
64623;SDS011;51031;50.912;9.242;2022-07-01T01:30:45;4.55;;;2.33;;
64623;SDS011;51031;50.912;9.242;2022-07-01T01:31:01;5.65;;;3.08;;
64623;SDS011;51031;50.912;9.242;2022-07-01T01:31:17;6.00;;;3.25;;
64623;SDS011;51031;50.912;9.242;2022-07-01T01:31:43;5.15;;;2.92;;
64623;SDS011;51031;50.912;9.242;2022-07-01T01:32:01;5.40;;;2.78;;
64623;SDS011;51031;50.912;9.242;2022-07-01T01:32:18;5.32;;;2.88;;
64623;SDS011;51031;50.912;9.242;2022-07-01T01:32:33;5.10;;;2.90;;
64623;SDS011;51031;50.912;9.242;2022-07-01T01:32:50;6.05;;;2.85;;
64623;SDS011;51031;50.912;9.242;2022-07-01T01:33:05;5.40;;;2.55;;
64623;SDS011;51031;50.912;9.242;2022-07-01T01:33:23;4.05;;;2.10;;
64623;SDS011;51031;50.912;9.242;2022-07-01T01:33:39;5.10;;;2.75;;
64623;SDS011;51031;50.912;9.242;2022-07-01T01:33:55;5.72;;;3.10;;
64623;SDS011;51031;50.912;9.242;2022-07-01T01:34:11;5.03;;;2.35;;
64623;SDS011;51031;50.912;9.242;2022-07-01T01:34:30;5.07;;;1.90;;
64623;SDS011;51031;50.912;9.242;2022-07-01T01:34:45;4.50;;;1.90;;
64623;SDS011;51031;50.912;9.242;2022-07-01T01:35:02;3.92;;;1.92;;
64623;SDS011;51031;50.912;9.242;2022-07-01T01:35:19;4.57;;;2.65;;
64623;SDS011;51031;50.912;9.242;2022-07-01T01:35:35;6.70;;;3.53;;
64623;SDS011;51031;50.912;9.242;2022-07-01T01:35:52;6.53;;;3.20;;
64623;SDS011;51031;50.912;9.242;2022-07-01T01:36:08;5.65;;;2.97;;
64623;SDS011;51031;50.912;9.242;2022-07-01T01:36:25;5.85;;;3.20;;
64623;SDS011;51031;50.912;9.242;2022-07-01T01:36:40;5.38;;;2.85;;
64623;SDS011;51031;50.912;9.242;2022-07-01T01:36:57;4.28;;;2.25;;
64623;SDS011;51031;50.912;9.242;2022-07-01T01:37:13;3.72;;;1.80;;
64623;SDS011;51031;50.912;9.242;2022-07-01T01:37:28;3.50;;;1.63;;
64623;SDS011;51031;50.912;9.242;2022-07-01T01:37:45;3.28;;;1.55;;
64623;SDS011;51031;50.912;9.242;2022-07-01T01:38:02;2.58;;;1.67;;
64623;SDS011;51031;50.912;9.242;2022-07-01T01:38:17;2.88;;;1.67;;
64623;SDS011;51031;50.912;9.242;2022-07-01T01:38:33;3.40;;;1.80;;
64623;SDS011;51031;50.912;9.242;2022-07-01T01:38:50;4.18;;;1.95;;
64623;SDS011;51031;50.912;9.242;2022-07-01T01:39:06;4.93;;;2.22;;
64623;SDS011;51031;50.912;9.242;2022-07-01T01:39:25;4.75;;;2.17;;
64623;SDS011;51031;50.912;9.242;2022-07-01T01:39:41;7.05;;;2.95;;
64623;SDS011;51031;50.912;9.242;2022-07-01T01:39:56;7.88;;;3.58;;
64623;SDS011;51031;50.912;9.242;2022-07-01T01:40:13;6.13;;;3.30;;